EST,Max TemperatureF,Mean TemperatureF,Min TemperatureF,Max Dew PointF,MeanDew PointF,Min DewpointF,Max Humidity, Mean Humidity, Min Humidity, Max Sea Level PressureIn, Mean Sea Level PressureIn, Min Sea Level PressureIn, Max VisibilityMiles, Mean VisibilityMiles, Min VisibilityMiles, Max Wind SpeedMPH, Mean Wind SpeedMPH, Max Gust SpeedMPH,PrecipitationIn, CloudCover, Events, WindDirDegrees
2010-12-1,44,40,37,40,38,35,93,87,81,30.29,29.97,29.68,10,5,2,24,13,40,0.35,8,Rain,144
2010-12-2,42,35,28,40,31,23,100,86,62,30.04,29.87,29.68,10,7,1,13,4,22,0.22,7,Rain-Snow,319
2010-12-3,33,30,28,27,24,21,93,77,60,30.01,29.91,29.80,10,8,1,9,3,17,0.04,8,Snow,324
2010-12-4,30,27,23,27,24,18,93,85,80,29.80,29.70,29.60,10,6,0,7,2,16,0.28,8,Fog-Snow,292
2010-12-5,23,21,19,19,16,16,89,83,74,29.59,29.53,29.45,10,7,2,6,2,,0.00,8,Snow,302
2010-12-6,21,20,19,18,15,12,93,78,68,29.48,29.17,29.05,10,3,0,13,4,26,0.03,8,Fog-Snow,278
2010-12-7,23,20,17,16,13,10,86,73,58,29.53,29.29,29.09,10,7,2,10,3,24,0.00,8,Snow,260
2010-12-8,18,14,6,12,9,3,87,74,62,29.95,29.63,29.48,10,5,1,13,4,21,0.00,8,Snow,303
2010-12-9,15,5,-5,5,1,-9,92,73,53,30.35,30.11,29.89,10,8,2,9,2,18,0.00,6,Snow,286
2010-12-10,18,4,-11,11,2,-17,88,77,54,30.45,30.31,30.15,10,8,2,6,1,,0.00,4,Snow,3
2010-12-11,30,22,14,25,18,10,100,88,78,30.26,30.19,30.13,10,4,0,0,0,,0.00,7,Fog-Snow,-1
2010-12-12,46,27,8,43,26,5,100,89,81,30.26,29.89,29.41,7,3,0,17,4,26,1.07,8,Fog-Rain-Snow,119
2010-12-13,50,40,26,48,42,24,100,90,80,29.25,29.11,29.03,10,8,0,21,8,28,0.40,7,Fog-Rain-Snow,145
2010-12-14,24,17,10,21,12,2,93,80,67,29.58,29.29,29.09,10,5,0,8,5,,0.09,8,Fog-Snow,327
2010-12-15,10,8,5,4,2,0,84,74,61,29.65,29.55,29.47,10,5,0,9,6,21,0.17,7,Fog-Snow,291
2010-12-16,18,4,-9,10,0,-13,92,81,60,29.78,29.68,29.56,10,7,1,4,0,,0.00,6,Snow,80
2010-12-17,21,8,-7,15,5,-11,92,78,60,30.05,29.85,29.69,10,8,1,8,1,,0.00,5,Snow,288
2010-12-18,27,10,-7,21,10,-11,96,85,69,30.14,30.06,30.00,10,8,2,5,0,,0.00,7,Snow,285
2010-12-19,28,18,5,20,14,1,100,85,56,30.10,30.03,29.90,10,7,2,5,0,,0.00,6,Snow,340
2010-12-20,21,12,3,16,11,-2,93,81,68,29.96,29.89,29.81,10,6,1,9,2,17,0.00,6,Snow,327
2010-12-21,30,24,19,25,20,15,86,80,72,29.85,29.80,29.75,10,6,1,10,7,17,0.00,8,Snow,326
2010-12-22,30,28,26,25,24,21,88,83,74,29.78,29.68,29.61,10,3,0,9,5,17,0.16,8,Fog-Snow,327
2010-12-23,28,26,21,25,22,17,86,81,78,29.98,29.75,29.60,10,5,0,16,7,29,0.03,8,Fog-Snow,328
2010-12-24,24,12,0,16,9,-5,87,76,62,30.11,30.05,29.98,10,10,10,9,5,17,0.00,3,,314
2010-12-25,21,7,-7,12,-1,-12,96,82,65,30.09,30.04,29.98,10,9,6,4,0,,0.00,3,,-1
2010-12-26,19,6,-7,16,5,-12,87,81,70,30.12,29.85,29.47,10,8,1,10,2,,0.00,4,Snow,4
2010-12-27,23,16,10,20,8,1,93,75,64,29.49,29.28,29.11,10,2,0,20,12,33,0.44,8,Fog-Snow,331
2010-12-28,23,14,6,5,2,-1,80,62,38,29.76,29.57,29.39,10,8,2,15,8,28,0.00,2,Snow,316
2010-12-29,27,12,-2,22,13,-7,90,78,60,30.06,29.94,29.78,10,10,6,7,2,,0.00,6,,297
2010-12-30,37,24,10,21,15,7,92,80,47,30.17,30.10,30.03,10,8,2,4,1,,0.00,2,,350
2010-12-31,41,26,12,31,22,10,96,85,60,30.14,30.08,30.00,10,8,6,4,0,,0.00,6,,220